Time;durP1;ratioP1;P1;durP2;ratioP2;P2;SDS_P1;SDS_P2;PMS_P1;PMS_P2;Temp;Humidity;BMP_temperature;BMP_pressure;BME280_temperature;BME280_humidity;BME280_pressure;Samples;Min_cycle;Max_cycle;Signal;HPM_P1;HPM_P2
2022/08/24 05:47:24;;;;;;;11.00;9.97;;;;;;;21.98;100.00;99130.06;5113608;28;20241;-67
2022/08/24 05:49:52;;;;;;;13.27;9.57;;;;;;;21.97;100.00;99138.81;5113757;28;20198;-68
2022/08/24 05:52:19;;;;;;;13.93;10.93;;;;;;;21.99;100.00;99136.09;5114231;28;20210;-68
2022/08/24 05:54:50;;;;;;;11.67;10.57;;;;;;;22.03;100.00;99136.69;5113936;28;20574;-67
2022/08/24 05:57:17;;;;;;;12.00;10.20;;;;;;;22.03;100.00;99136.69;5113845;28;20681;-68
2022/08/24 05:59:44;;;;;;;11.33;10.23;;;;;;;22.03;100.00;99136.69;5114080;28;20195;-67
2022/08/24 06:02:11;;;;;;;14.47;10.37;;;;;;;22.04;100.00;99139.16;5113994;28;20225;-68
2022/08/24 06:04:40;;;;;;;11.80;10.03;;;;;;;22.05;100.00;99124.31;5113983;28;20275;-68
2022/08/24 06:07:10;;;;;;;10.33;9.53;;;;;;;22.13;100.00;99135.00;5113613;28;20649;-67
2022/08/24 06:09:37;;;;;;;11.40;10.33;;;;;;;22.17;100.00;99133.75;5112318;28;20213;-68
2022/08/24 06:12:04;;;;;;;11.27;10.30;;;;;;;22.23;100.00;99133.28;5113684;28;20217;-68
2022/08/24 06:14:33;;;;;;;11.00;10.17;;;;;;;22.32;100.00;99132.53;5112607;28;20198;-67
2022/08/24 06:17:00;;;;;;;12.20;11.00;;;;;;;22.39;100.00;99133.69;5113143;28;20218;-68
2022/08/24 06:19:27;;;;;;;14.73;10.63;;;;;;;22.46;100.00;99133.03;5113435;28;20205;-68
2022/08/24 06:21:55;;;;;;;10.70;9.77;;;;;;;22.53;100.00;99135.94;5113446;28;20206;-67
2022/08/24 06:27:20;;;;;;;10.57;9.67;;;;;;;22.62;100.00;99139.59;5113466;28;20202;-68
2022/08/24 06:27:24;;;;;;;9.97;8.87;;;;;;;22.65;100.00;99145.38;5113025;28;20243;-67
2022/08/24 06:29:53;;;;;;;8.23;7.83;;;;;;;22.66;100.00;99147.06;5113422;28;20198;-68
2022/08/24 06:32:20;;;;;;;8.93;8.27;;;;;;;22.69;100.00;99145.97;5113182;28;20251;-67
2022/08/24 06:34:47;;;;;;;9.77;8.97;;;;;;;22.73;100.00;99142.16;5113252;28;20199;-68
2022/08/24 06:37:16;;;;;;;8.97;8.23;;;;;;;22.79;100.00;99145.09;5112901;28;20578;-67
2022/08/24 06:39:43;;;;;;;8.53;7.80;;;;;;;22.74;100.00;99142.03;5109330;28;20730;-68
2022/08/24 06:42:10;;;;;;;8.00;7.60;;;;;;;22.75;100.00;99146.28;5112782;28;20203;-67
2022/08/24 06:44:37;;;;;;;8.47;7.80;;;;;;;22.80;100.00;99136.31;5112999;28;20190;-68
2022/08/24 06:47:04;;;;;;;8.27;7.57;;;;;;;22.81;100.00;99140.53;5112652;28;20222;-66
2022/08/24 06:49:31;;;;;;;7.47;7.00;;;;;;;22.81;100.00;99135.31;5113312;28;20199;-67
2022/08/24 06:51:58;;;;;;;8.53;7.83;;;;;;;22.84;100.00;99140.28;5112694;28;20191;-68
2022/08/24 06:54:26;;;;;;;8.90;8.10;;;;;;;22.90;100.00;99139.78;5112566;28;20207;-67
2022/08/24 06:56:55;;;;;;;7.97;7.17;;;;;;;22.88;100.00;99146.91;5112910;28;20218;-68
2022/08/24 06:59:22;;;;;;;7.97;7.47;;;;;;;22.89;100.00;99148.59;5112571;28;20191;-67
2022/08/24 07:01:49;;;;;;;7.77;7.17;;;;;;;22.97;100.00;99140.91;5112550;28;20289;-68
2022/08/24 07:04:16;;;;;;;19.90;7.60;;;;;;;22.96;100.00;99128.81;5112707;28;20283;-67
2022/08/24 07:06:42;;;;;;;7.17;6.43;;;;;;;23.14;100.00;99147.31;5112710;28;20191;-67
2022/08/24 07:09:09;;;;;;;8.07;7.33;;;;;;;23.22;100.00;99151.91;5111815;28;20203;-68
2022/08/24 07:11:37;;;;;;;11.03;6.30;;;;;;;23.29;100.00;99145.19;5111584;27;20195;-67
2022/08/24 07:14:04;;;;;;;6.77;6.17;;;;;;;23.37;100.00;99138.31;5112458;28;20198;-67
2022/08/24 07:16:31;;;;;;;6.33;6.03;;;;;;;23.38;100.00;99139.16;5112249;28;20219;-68
2022/08/24 07:18:58;;;;;;;7.60;6.93;;;;;;;23.43;100.00;99144.81;5112608;28;20195;-67
2022/08/24 07:21:25;;;;;;;6.83;6.43;;;;;;;23.50;100.00;99149.41;5111761;28;20698;-67
2022/08/24 07:23:55;;;;;;;6.63;6.27;;;;;;;23.63;100.00;99149.16;5112355;28;20194;-68
2022/08/24 07:26:24;;;;;;;7.20;6.70;;;;;;;23.70;100.00;99142.44;5112160;28;20194;-67
2022/08/24 07:28:53;;;;;;;6.43;6.00;;;;;;;23.89;100.00;99160.78;5112055;28;20285;-68
2022/08/24 07:31:20;;;;;;;5.83;5.50;;;;;;;24.10;100.00;99146.75;5112225;28;20251;-67
2022/08/24 07:33:47;;;;;;;5.83;5.40;;;;;;;24.29;100.00;99146.78;5112103;28;20298;-68
2022/08/24 07:36:16;;;;;;;5.13;4.93;;;;;;;24.40;100.00;99128.25;5112208;28;20666;-68
2022/08/24 07:38:43;;;;;;;6.18;5.63;;;;;;;24.71;99.40;99142.03;5109959;28;20434;-67
2022/08/24 07:41:09;;;;;;;5.82;5.43;;;;;;;24.85;98.88;99134.53;5110946;28;20438;-65
2022/08/24 07:43:36;;;;;;;5.50;5.10;;;;;;;25.02;97.34;99138.22;5112270;28;20300;-64
2022/08/24 07:46:06;;;;;;;5.10;4.80;;;;;;;25.33;95.77;99154.53;5112119;28;20203;-66
2022/08/24 07:48:33;;;;;;;5.23;4.77;;;;;;;25.55;95.72;99151.56;5108785;28;20283;-66
2022/08/24 07:51:07;;;;;;;5.23;4.93;;;;;;;25.72;96.59;99155.97;5112008;28;20202;-69
2022/08/24 07:53:34;;;;;;;4.93;4.57;;;;;;;25.89;91.75;99147.31;5111396;28;20195;-68
2022/08/24 07:56:01;;;;;;;4.60;4.40;;;;;;;26.13;91.47;99151.16;5111309;28;20203;-67
2022/08/24 07:58:28;;;;;;;4.63;4.33;;;;;;;26.40;87.47;99151.06;5111389;28;20210;-66
2022/08/24 08:00:55;;;;;;;4.37;4.17;;;;;;;26.71;90.66;99154.94;5111498;28;20685;-67
2022/08/24 08:03:25;;;;;;;4.63;4.23;;;;;;;27.05;88.12;99154.97;5111779;28;20191;-66
2022/08/24 08:05:56;;;;;;;4.40;4.10;;;;;;;27.30;86.38;99166.47;5110391;28;20194;-67
2022/08/24 08:08:23;;;;;;;4.13;3.93;;;;;;;27.36;85.09;99177.19;5110562;28;20199;-67
2022/08/24 08:10:51;;;;;;;5.80;4.43;;;;;;;27.29;86.39;99170.91;5109952;28;20198;-67
2022/08/24 08:13:18;;;;;;;5.23;4.90;;;;;;;27.32;87.43;99164.50;5109235;28;20207;-67
2022/08/24 08:15:45;;;;;;;5.43;5.03;;;;;;;27.34;85.83;99167.78;5109984;28;20206;-67
2022/08/24 08:18:13;;;;;;;5.20;5.00;;;;;;;27.43;84.82;99166.88;5108312;28;20217;-64
2022/08/24 08:20:41;;;;;;;4.93;4.57;;;;;;;27.44;87.66;99160.63;5109114;28;20294;-66
2022/08/24 08:25:56;;;;;;;5.77;4.23;;;;;;;27.51;84.64;99174.81;5106237;28;20275;-66
2022/08/24 08:28:23;;;;;;;13.07;4.90;;;;;;;27.48;83.58;99175.97;5109419;28;20203;-67
2022/08/24 08:30:51;;;;;;;4.57;4.20;;;;;;;27.32;83.06;99169.75;5107092;28;20207;-66
2022/08/24 08:33:18;;;;;;;4.80;4.50;;;;;;;27.17;83.09;99173.97;5107093;28;20696;-66
2022/08/24 08:35:49;;;;;;;5.07;4.77;;;;;;;27.11;86.56;99173.59;5108660;28;20206;-66
2022/08/24 08:38:16;;;;;;;4.93;4.73;;;;;;;27.10;86.57;99166.72;5110620;28;20218;-66
2022/08/24 08:41:03;;;;;;;5.17;4.87;;;;;;;27.17;86.76;99155.56;5108104;28;20209;-65
2022/08/24 08:43:40;;;;;;;4.77;4.40;;;;;;;27.21;84.21;99162.13;5108389;28;20698;-65
2022/08/24 08:46:19;;;;;;;5.23;4.93;;;;;;;27.29;82.81;99154.28;5109894;28;20288;-65
2022/08/24 08:49:09;;;;;;;5.07;4.77;;;;;;;27.35;83.13;99153.66;5109560;28;20211;-65
2022/08/24 08:52:00;;;;;;;5.03;4.53;;;;;;;27.41;84.90;99163.53;5107511;28;20206;-65
2022/08/24 08:54:40;;;;;;;4.97;4.73;;;;;;;27.42;84.28;99176.56;5109177;28;20711;-65
2022/08/24 08:57:26;;;;;;;5.40;5.13;;;;;;;27.41;83.23;99164.38;5108053;28;20625;-65
2022/08/24 09:00:09;;;;;;;5.37;4.90;;;;;;;27.45;81.82;99165.75;5110128;28;20376;-65
2022/08/24 09:02:57;;;;;;;4.40;4.20;;;;;;;27.48;84.25;99167.22;5110513;28;20198;-65
2022/08/24 09:05:49;;;;;;;7.37;4.80;;;;;;;27.43;83.65;99153.69;5109285;28;20294;-65
2022/08/24 09:08:29;;;;;;;5.57;5.17;;;;;;;27.39;83.28;99155.00;5109791;28;20199;-65
2022/08/24 09:11:07;;;;;;;5.73;5.20;;;;;;;27.38;83.69;99158.59;5109599;28;20251;-65
2022/08/24 09:13:58;;;;;;;5.07;4.83;;;;;;;27.44;83.22;99158.00;5110436;28;20213;-65
2022/08/24 09:16:54;;;;;;;4.43;4.20;;;;;;;27.56;82.20;99164.63;5109444;28;20198;-65
2022/08/24 09:19:41;;;;;;;5.87;5.37;;;;;;;27.67;82.35;99169.59;5099085;28;20257;-65
2022/08/24 09:22:12;;;;;;;5.53;5.27;;;;;;;27.76;80.91;99152.81;5109152;28;20201;-65
2022/08/24 09:25:02;;;;;;;5.60;5.30;;;;;;;27.82;82.38;99157.44;5109741;28;20199;-65
2022/08/24 09:27:39;;;;;;;4.90;4.60;;;;;;;27.93;80.83;99157.16;5108522;28;20570;-65
2022/08/24 09:30:11;;;;;;;4.43;4.23;;;;;;;28.14;79.73;99162.00;5108238;28;20610;-65
2022/08/24 09:33:00;;;;;;;8.37;5.27;;;;;;;28.21;78.92;99162.16;5109414;28;20195;-66
2022/08/24 09:35:35;;;;;;;5.20;4.90;;;;;;;28.26;81.30;99151.94;5109590;28;20209;-65
2022/08/24 09:38:15;;;;;;;5.00;4.57;;;;;;;28.42;81.59;99149.31;5108483;28;20218;-65
2022/08/24 09:41:13;;;;;;;5.13;4.83;;;;;;;28.50;81.99;99138.72;5107403;28;20202;-65
2022/08/24 09:44:02;;;;;;;5.10;4.80;;;;;;;28.62;81.98;99137.44;5111594;28;20203;-65
2022/08/24 09:47:07;;;;;;;4.70;4.50;;;;;;;28.86;80.76;99132.13;5109409;28;20199;-66
2022/08/24 09:50:11;;;;;;;4.60;4.10;;;;;;;29.14;76.17;99135.97;5096771;28;20198;-66
2022/08/24 09:53:05;;;;;;;5.20;4.80;;;;;;;29.34;76.22;99120.59;5070169;28;20194;-66
2022/08/24 09:56:17;;;;;;;4.50;4.30;;;;;;;29.49;70.52;99121.53;5101734;28;20199;-66
2022/08/24 09:59:07;;;;;;;9.93;4.80;;;;;;;29.69;66.17;99116.63;5038230;28;20581;-66
2022/08/24 10:01:40;;;;;;;3.60;3.40;;;;;;;29.83;69.56;99115.88;5110700;28;20559;-66
2022/08/24 10:04:21;;;;;;;4.43;4.22;;;;;;;29.97;68.89;99115.13;5109309;28;20198;-66
2022/08/24 10:07:03;;;;;;;4.22;3.90;;;;;;;30.09;69.14;99111.06;5111548;28;20317;-66
2022/08/24 10:10:03;;;;;;;4.18;3.97;;;;;;;30.12;66.08;99113.34;5110602;28;21061;-66
2022/08/24 10:12:45;;;;;;;4.28;3.97;;;;;;;30.24;68.53;99107.66;5109143;28;20213;-66
2022/08/24 10:15:22;;;;;;;4.20;3.92;;;;;;;30.36;66.17;99095.63;5112138;28;20201;-66
2022/08/24 10:18:10;;;;;;;3.92;3.83;;;;;;;30.46;67.87;99085.66;5111669;28;20221;-67
2022/08/24 10:20:52;;;;;;;4.35;4.03;;;;;;;30.43;69.69;99083.38;5111426;28;20603;-66
2022/08/24 10:23:37;;;;;;;4.13;3.90;;;;;;;30.49;67.28;99078.19;5112881;28;20202;-66
2022/08/24 10:26:13;;;;;;;4.22;3.72;;;;;;;30.66;66.45;99073.56;5111847;27;20452;-66
2022/08/24 10:29:05;;;;;;;5.10;3.72;;;;;;;30.81;71.08;99063.78;5110461;28;20669;-67
2022/08/24 10:31:46;;;;;;;3.92;3.60;;;;;;;30.92;65.08;99071.22;5111680;27;20230;-66
2022/08/24 10:34:34;;;;;;;3.72;3.47;;;;;;;31.00;65.48;99068.53;5107993;28;20202;-67
2022/08/24 10:37:35;;;;;;;5.72;3.75;;;;;;;30.88;66.57;99067.34;5109284;28;20205;-69
2022/08/24 10:40:30;;;;;;;3.13;2.97;;;;;;;30.84;66.78;99071.34;5113576;27;20208;-67
2022/08/24 10:43:33;;;;;;;4.35;3.85;;;;;;;30.77;66.15;99074.91;5109445;27;20224;-67
2022/08/24 10:46:49;;;;;;;3.35;3.15;;;;;;;30.51;64.46;99075.34;5085624;27;20202;-67
2022/08/24 10:49:46;;;;;;;4.00;3.70;;;;;;;30.59;65.23;99069.97;5051313;28;20703;-65
2022/08/24 10:52:47;;;;;;;3.65;3.42;;;;;;;30.71;63.29;99063.22;5108685;28;20202;-65
2022/08/24 10:55:19;;;;;;;3.95;3.65;;;;;;;30.66;66.43;99049.72;5115729;27;20194;-66
2022/08/24 10:57:58;;;;;;;4.05;3.75;;;;;;;30.61;66.65;99052.09;5112407;27;20718;-66
2022/08/24 11:00:28;;;;;;;4.75;3.65;;;;;;;30.75;64.96;99053.09;5109468;28;20598;-66
2022/08/24 11:03:07;;;;;;;4.78;4.00;;;;;;;30.84;65.32;99052.81;5110031;27;20202;-67
2022/08/24 11:05:42;;;;;;;7.18;3.40;;;;;;;30.86;62.12;99050.78;5113267;27;20203;-66
2022/08/24 11:08:19;;;;;;;3.55;3.30;;;;;;;30.94;64.23;99060.47;5110892;28;20251;-67
2022/08/24 11:11:02;;;;;;;4.15;3.88;;;;;;;30.94;65.49;99052.53;5110821;28;20209;-67
2022/08/24 11:13:29;;;;;;;4.15;3.58;;;;;;;30.99;64.43;99052.81;5112628;27;20645;-67
2022/08/24 11:15:59;;;;;;;7.65;3.60;;;;;;;31.10;65.84;99047.88;5109825;28;20257;-66
2022/08/24 11:18:45;;;;;;;4.35;4.00;;;;;;;31.15;63.76;99044.66;5111164;28;20299;-67
2022/08/24 11:21:31;;;;;;;6.78;4.35;;;;;;;31.34;65.23;99044.09;5111190;28;20198;-67
2022/08/24 11:24:02;;;;;;;4.57;4.18;;;;;;;31.41;66.93;99044.13;5107723;28;20242;-67
2022/08/24 11:26:29;;;;;;;4.40;4.00;;;;;;;31.44;63.45;99043.78;5108577;28;20868;-68
2022/08/24 11:29:00;;;;;;;7.45;3.55;;;;;;;31.50;64.31;99045.72;5108010;28;20199;-68
2022/08/24 11:31:31;;;;;;;5.15;3.72;;;;;;;31.61;65.36;99047.84;5108483;28;20207;-68
2022/08/24 11:34:02;;;;;;;7.07;4.55;;;;;;;31.60;62.30;99043.59;5110160;28;20207;-67
2022/08/24 11:36:34;;;;;;;4.68;3.88;;;;;;;31.43;63.98;99040.31;5111409;28;20213;-66
2022/08/24 11:39:15;;;;;;;7.75;3.55;;;;;;;31.45;62.05;99040.13;5110492;28;20230;-67
2022/08/24 11:41:51;;;;;;;8.27;4.38;;;;;;;31.34;64.01;99032.69;5108181;28;20209;-67
2022/08/24 11:44:35;;;;;;;4.20;3.80;;;;;;;31.33;60.45;99036.31;5108565;28;20206;-66
2022/08/24 11:47:14;;;;;;;6.55;3.83;;;;;;;31.31;66.09;99031.19;5108369;28;20235;-67
2022/08/24 11:49:55;;;;;;;3.72;3.45;;;;;;;31.40;65.61;99026.63;5109675;28;20225;-67
2022/08/24 11:52:36;;;;;;;5.80;3.60;;;;;;;31.46;63.61;99025.88;5109237;28;20219;-67
2022/08/24 11:55:10;;;;;;;5.70;4.25;;;;;;;31.52;62.65;99033.09;5106999;28;20207;-67
2022/08/24 11:57:44;;;;;;;5.25;3.55;;;;;;;31.44;62.89;99025.25;5109133;28;20205;-67
2022/08/24 12:00:17;;;;;;;5.03;4.32;;;;;;;31.51;60.86;99023.50;5104389;28;20210;-67
2022/08/24 12:02:54;;;;;;;4.25;3.38;;;;;;;31.19;61.47;98999.09;5109635;28;20198;-67
2022/08/24 12:05:26;;;;;;;4.20;3.80;;;;;;;31.51;62.23;99034.91;5107044;28;20194;-67
2022/08/24 12:08:03;;;;;;;3.78;3.47;;;;;;;31.46;65.15;99017.91;5109507;28;20736;-67
2022/08/24 12:10:40;;;;;;;6.97;4.20;;;;;;;31.53;64.86;99021.50;5110589;28;20199;-67
2022/08/24 12:13:16;;;;;;;7.13;4.40;;;;;;;31.48;68.05;99010.59;5111199;28;20199;-67
2022/08/24 12:15:49;;;;;;;4.45;3.72;;;;;;;31.45;66.28;99009.16;5110678;28;20206;-67
2022/08/24 12:18:27;;;;;;;4.60;3.83;;;;;;;31.45;64.37;99008.31;5111110;28;20690;-67
2022/08/24 12:20:56;;;;;;;3.78;3.53;;;;;;;31.41;64.74;99007.06;5111206;28;20263;-66
2022/08/24 12:23:32;;;;;;;3.55;3.30;;;;;;;31.41;66.32;99012.34;5111339;28;20194;-65
2022/08/24 12:26:03;;;;;;;7.90;3.83;;;;;;;31.42;63.45;99014.00;5111056;28;20277;-67
2022/08/24 12:28:37;;;;;;;5.30;4.20;;;;;;;31.48;63.02;99014.06;5111155;28;20198;-68
2022/08/24 12:31:11;;;;;;;9.15;3.45;;;;;;;31.57;64.20;99012.97;5110956;28;20202;-67
2022/08/24 12:33:43;;;;;;;3.85;3.55;;;;;;;31.67;62.38;99018.75;5111431;28;20221;-67
2022/08/24 12:36:21;;;;;;;6.15;3.78;;;;;;;31.66;64.05;99008.38;5111282;28;20194;-67
2022/08/24 12:39:01;;;;;;;8.48;3.58;;;;;;;31.85;63.50;99015.66;5110885;28;20681;-67
2022/08/24 12:41:33;;;;;;;4.57;4.07;;;;;;;31.97;62.07;99011.47;5110505;28;20221;-67
2022/08/24 12:44:06;;;;;;;7.38;4.60;;;;;;;32.08;62.66;99011.00;5108516;28;20810;-66
2022/08/24 12:46:43;;;;;;;8.77;3.83;;;;;;;32.23;59.91;99016.19;5110630;28;20195;-66
2022/08/24 12:49:19;;;;;;;7.10;4.40;;;;;;;32.25;61.03;99017.63;5108566;28;20717;-66
2022/08/24 12:52:04;;;;;;;4.90;4.13;;;;;;;32.15;61.45;99003.88;5106488;28;20262;-66
2022/08/24 12:54:58;;;;;;;5.05;4.40;;;;;;;32.20;60.55;99003.31;5108827;28;20219;-68
2022/08/24 12:57:39;;;;;;;8.30;3.65;;;;;;;32.29;61.41;99007.44;5106857;28;20203;-66
2022/08/24 13:00:26;;;;;;;3.75;3.45;;;;;;;32.34;59.38;98998.91;5109881;28;20626;-68
2022/08/24 13:02:59;;;;;;;5.40;4.88;;;;;;;32.36;61.31;98992.41;5111161;28;20205;-67
2022/08/24 13:05:38;;;;;;;4.05;3.67;;;;;;;32.29;59.60;98980.09;5110121;28;20209;-67
2022/08/24 13:08:12;;;;;;;7.35;3.78;;;;;;;32.42;60.85;98990.78;5110099;28;20638;-67
2022/08/24 13:10:44;;;;;;;5.18;3.38;;;;;;;32.44;59.75;98983.47;5109346;28;20678;-67
2022/08/24 13:13:19;;;;;;;4.82;3.90;;;;;;;32.55;58.49;98974.94;5109579;28;20199;-67
2022/08/24 13:16:01;;;;;;;4.40;4.05;;;;;;;32.62;59.45;98971.34;5110714;28;20198;-67
2022/08/24 13:19:09;;;;;;;3.63;3.33;;;;;;;32.69;58.88;98966.88;5112056;28;20594;-67
2022/08/24 13:21:56;;;;;;;6.97;3.83;;;;;;;32.80;59.96;98968.13;5113653;28;20252;-68
2022/08/24 13:25:07;;;;;;;7.28;4.07;;;;;;;32.79;56.63;98966.53;5114339;28;20198;-69
2022/08/24 13:28:05;;;;;;;8.43;3.63;;;;;;;32.55;56.97;98965.16;5103170;28;20198;-73
2022/08/24 13:30:59;;;;;;;7.30;3.80;;;;;;;32.45;57.42;98955.91;5112120;28;20209;-68
2022/08/24 13:33:30;;;;;;;6.47;3.45;;;;;;;32.25;57.63;98958.44;5113178;28;20202;-67
2022/08/24 13:36:05;;;;;;;15.48;4.25;;;;;;;32.36;56.99;98954.44;5113373;28;20264;-68
2022/08/24 13:39:00;;;;;;;4.95;3.70;;;;;;;32.47;58.18;98953.88;5113448;28;20662;-68
2022/08/24 13:41:44;;;;;;;3.78;3.47;;;;;;;32.59;58.64;98952.34;5113249;28;20210;-67
2022/08/24 13:44:23;;;;;;;5.50;4.13;;;;;;;32.53;57.59;98950.44;5109920;28;20581;-67
2022/08/24 13:47:01;;;;;;;3.60;3.30;;;;;;;32.32;56.68;98953.16;5111346;28;20226;-67
2022/08/24 13:49:41;;;;;;;8.73;3.58;;;;;;;32.28;56.56;98957.25;5111642;28;20574;-67
2022/08/24 13:52:18;;;;;;;3.72;3.40;;;;;;;32.27;58.43;98952.97;5110552;28;20577;-67
2022/08/24 13:55:01;;;;;;;8.10;3.90;;;;;;;32.05;58.67;98945.06;5110618;28;20680;-68
2022/08/24 13:57:38;;;;;;;4.63;3.55;;;;;;;31.99;58.24;98951.09;5111451;28;20573;-67
2022/08/24 14:00:39;;;;;;;7.25;3.40;;;;;;;31.92;58.29;98939.66;5112662;28;20232;-68
2022/08/24 14:03:39;;;;;;;12.45;4.43;;;;;;;32.03;57.89;98948.88;5112721;28;20225;-68
2022/08/24 14:06:21;;;;;;;6.38;3.72;;;;;;;31.92;58.22;98936.19;5087512;28;20198;-68
2022/08/24 14:08:59;;;;;;;4.07;3.65;;;;;;;32.03;58.91;98948.88;5106166;27;20207;-68
2022/08/24 14:11:46;;;;;;;5.72;3.65;;;;;;;32.15;59.66;98948.19;5107247;28;20209;-68
2022/08/24 14:14:20;;;;;;;6.18;3.40;;;;;;;32.19;58.12;98944.13;5110598;28;20662;-68
2022/08/24 14:20:02;;;;;;;7.25;3.80;;;;;;;32.30;61.03;98939.28;5111348;28;20712;-68
2022/08/24 14:22:36;;;;;;;7.35;4.00;;;;;;;32.38;59.28;98947.09;5111159;27;20211;-68
2022/08/24 14:25:17;;;;;;;6.45;4.00;;;;;;;32.43;58.38;98944.69;5111542;28;20203;-68
2022/08/24 14:27:47;;;;;;;8.30;3.83;;;;;;;32.40;59.19;98945.06;5111526;28;20205;-68
2022/08/24 14:30:47;;;;;;;8.70;4.18;;;;;;;32.47;58.72;98948.59;5109870;27;20199;-68
2022/08/24 14:33:27;;;;;;;5.40;3.75;;;;;;;32.53;60.21;98939.81;5110198;27;20210;-68
2022/08/24 14:36:11;;;;;;;9.25;3.50;;;;;;;32.55;57.46;98937.78;5113141;27;20202;-69
2022/08/24 14:39:04;;;;;;;6.53;3.22;;;;;;;32.51;57.87;98925.91;5110475;28;20222;-68
2022/08/24 14:41:45;;;;;;;6.05;3.40;;;;;;;32.49;57.81;98922.66;5115355;27;20984;-68
2022/08/24 14:44:33;;;;;;;5.95;4.30;;;;;;;32.45;58.26;98921.41;5110230;28;20210;-71
2022/08/24 14:47:06;;;;;;;3.40;3.20;;;;;;;32.16;59.61;98915.34;5111028;28;20716;-69
2022/08/24 14:49:45;;;;;;;8.32;3.55;;;;;;;32.01;60.88;98909.31;5113434;27;20201;-70
2022/08/24 14:52:39;;;;;;;8.48;3.45;;;;;;;31.81;60.60;98913.66;5111124;28;20655;-68
2022/08/24 14:55:12;;;;;;;5.75;3.85;;;;;;;31.86;61.51;98905.94;5116766;27;20266;-68
2022/08/24 14:57:58;;;;;;;4.43;3.28;;;;;;;31.79;61.81;98910.41;5118414;27;20199;-68
2022/08/24 15:00:47;;;;;;;3.55;3.25;;;;;;;31.73;61.13;98896.06;5113074;27;20214;-67
2022/08/24 15:03:48;;;;;;;3.60;3.13;;;;;;;31.65;60.54;98906.00;5114153;27;20205;-68
2022/08/24 15:06:23;;;;;;;7.82;3.25;;;;;;;31.51;60.45;98896.31;5104164;28;20279;-68
2022/08/24 15:08:51;;;;;;;3.58;3.33;;;;;;;31.56;60.41;98905.34;5111788;28;20588;-68
2022/08/24 15:11:23;;;;;;;3.72;3.42;;;;;;;31.53;60.93;98892.47;5117953;27;20674;-68
2022/08/24 15:13:55;;;;;;;3.30;3.00;;;;;;;31.60;62.59;98905.78;5113139;27;20686;-68
2022/08/24 15:16:27;;;;;;;10.82;3.40;;;;;;;31.50;62.51;98902.63;5112556;27;20222;-68
2022/08/24 15:19:03;;;;;;;10.25;3.92;;;;;;;31.28;64.28;98903.63;5111348;28;20215;-69
2022/08/24 15:21:44;;;;;;;4.53;3.00;;;;;;;31.21;65.20;98901.72;5110621;28;20237;-68
2022/08/24 15:24:20;;;;;;;12.15;4.70;;;;;;;31.17;64.94;98913.72;5109459;28;20203;-68
2022/08/24 15:26:59;;;;;;;10.50;4.28;;;;;;;31.01;64.41;98927.22;5110355;28;20194;-69
2022/08/24 15:29:30;;;;;;;7.68;4.25;;;;;;;30.94;64.82;98936.88;5111860;28;20233;-68
2022/08/24 15:32:04;;;;;;;11.82;4.45;;;;;;;30.83;65.43;98929.41;5110710;28;20205;-69
2022/08/24 15:34:39;;;;;;;9.30;3.88;;;;;;;30.81;65.82;98927.97;5111547;28;20223;-68
2022/08/24 15:37:07;;;;;;;13.68;4.57;;;;;;;30.66;66.27;98925.34;5110271;28;20206;-69
2022/08/24 15:39:34;;;;;;;13.07;3.75;;;;;;;30.62;67.47;98937.31;5112011;28;20643;-68
2022/08/24 15:42:08;;;;;;;11.32;4.03;;;;;;;30.51;67.41;98929.84;5110973;28;20601;-68
2022/08/24 15:44:36;;;;;;;7.30;3.88;;;;;;;30.47;68.00;98945.25;5111238;28;20551;-68
2022/08/24 15:47:12;;;;;;;8.30;3.42;;;;;;;30.51;69.02;98941.25;5108336;28;20265;-68
2022/08/24 15:49:48;;;;;;;15.48;3.65;;;;;;;30.50;68.28;98933.50;5109283;28;20289;-68
2022/08/24 15:55:26;;;;;;;9.00;4.38;;;;;;;30.43;67.89;98943.19;5087321;27;20558;-69
2022/08/24 15:57:54;;;;;;;14.20;6.82;;;;;;;30.40;67.61;98938.25;5086915;28;20560;-69
2022/08/24 16:03:20;;;;;;;7.55;3.70;;;;;;;30.05;68.41;98953.00;5086772;28;20769;-69
2022/08/24 16:05:48;;;;;;;10.38;4.20;;;;;;;29.84;67.67;98953.69;5087559;28;20203;-70
2022/08/24 16:08:15;;;;;;;10.47;3.77;;;;;;;29.75;67.49;98954.72;5087000;28;20199;-69
2022/08/24 16:10:46;;;;;;;15.73;3.47;;;;;;;29.63;67.31;98961.41;5087028;28;20203;-69
2022/08/24 16:13:23;;;;;;;9.30;4.33;;;;;;;29.55;67.52;98954.41;5084946;28;20228;-69
2022/08/24 16:15:58;;;;;;;14.13;3.90;;;;;;;29.46;68.62;98962.56;5087314;28;20203;-69
2022/08/24 16:18:42;;;;;;;10.50;3.97;;;;;;;29.42;68.77;98958.63;5086387;28;20194;-69
2022/08/24 16:21:15;;;;;;;16.03;4.83;;;;;;;29.34;69.50;98963.97;5087573;28;20196;-69
2022/08/24 16:23:45;;;;;;;14.10;4.23;;;;;;;29.24;69.75;98968.63;5087322;28;20655;-70
2022/08/24 16:26:22;;;;;;;15.37;3.83;;;;;;;29.16;69.33;98980.88;5087507;28;20203;-69
2022/08/24 16:28:52;;;;;;;16.10;4.17;;;;;;;29.09;69.39;98990.50;5087968;28;20293;-69
2022/08/24 16:31:44;;;;;;;8.43;4.17;;;;;;;29.02;70.48;98986.06;5087378;28;20233;-69
2022/08/24 16:34:19;;;;;;;14.60;4.17;;;;;;;29.00;71.13;98990.72;5081024;28;20595;-69
2022/08/24 16:36:47;;;;;;;23.97;5.17;;;;;;;28.95;71.53;98990.44;5086519;28;20686;-69
2022/08/24 16:39:13;;;;;;;13.07;4.53;;;;;;;28.79;71.56;98988.66;5086612;28;20202;-70
2022/08/24 16:41:43;;;;;;;18.27;3.93;;;;;;;28.79;71.15;98993.94;5085614;28;20583;-69
2022/08/24 16:44:10;;;;;;;13.77;3.87;;;;;;;28.85;71.19;98998.56;5086178;28;20214;-69
2022/08/24 16:46:38;;;;;;;17.17;3.97;;;;;;;28.83;71.21;99011.06;5083961;28;20302;-67
2022/08/24 16:49:06;;;;;;;11.77;3.87;;;;;;;28.75;71.79;99012.94;5084597;28;20200;-68
2022/08/24 16:51:33;;;;;;;10.20;4.27;;;;;;;28.79;71.33;99009.78;5084424;28;20204;-68
2022/08/24 16:54:00;;;;;;;6.80;3.90;;;;;;;28.79;71.36;99009.78;5083992;28;20239;-68
2022/08/24 16:56:27;;;;;;;12.47;4.03;;;;;;;28.76;71.72;99012.75;5083663;28;20269;-68
2022/08/24 16:58:56;;;;;;;9.43;3.30;;;;;;;28.74;71.68;99017.38;5086070;28;20203;-68
2022/08/24 17:01:23;;;;;;;10.60;3.43;;;;;;;28.74;72.09;99001.56;5085664;28;20203;-68
2022/08/24 17:03:50;;;;;;;14.53;4.63;;;;;;;28.88;72.40;99024.59;5083699;28;20214;-68
2022/08/24 17:06:19;;;;;;;5.43;3.40;;;;;;;28.94;72.63;99023.91;5072236;28;20720;-68
2022/08/24 17:08:46;;;;;;;14.53;4.80;;;;;;;28.98;72.68;99025.19;5069271;28;20206;-68
2022/08/24 17:11:13;;;;;;;10.60;4.93;;;;;;;28.88;73.33;99003.50;5071107;28;20196;-68
2022/08/24 17:13:40;;;;;;;20.83;4.93;;;;;;;29.07;73.22;99037.38;5073022;28;20685;-69
2022/08/24 17:16:10;;;;;;;8.77;3.23;;;;;;;28.94;73.52;99023.91;5070620;28;20266;-68
2022/08/24 17:18:38;;;;;;;21.07;4.40;;;;;;;28.77;72.38;99026.78;5071098;28;20231;-68
2022/08/24 17:21:05;;;;;;;10.13;3.97;;;;;;;28.59;71.24;99046.28;5072987;28;20208;-68
2022/08/24 17:23:33;;;;;;;10.13;3.50;;;;;;;28.51;71.91;99042.81;5072947;28;20253;-68
2022/08/24 17:26:00;;;;;;;37.47;16.17;;;;;;;28.68;71.90;99060.28;5072523;28;20331;-69
2022/08/24 17:28:28;;;;;;;17.60;7.63;;;;;;;28.65;72.71;99071.13;5073053;28;20253;-68
2022/08/24 17:30:54;;;;;;;23.10;5.40;;;;;;;28.65;73.32;99072.00;5073045;28;20645;-68
2022/08/24 17:33:23;;;;;;;13.17;3.93;;;;;;;28.57;73.59;99063.22;5071622;28;20207;-68
2022/08/24 17:35:54;;;;;;;7.07;2.97;;;;;;;28.56;73.63;99066.88;5072392;28;20203;-68
2022/08/24 17:38:21;;;;;;;7.20;3.80;;;;;;;28.57;73.21;99065.88;5071389;28;20253;-68
2022/08/24 17:40:49;;;;;;;10.30;4.27;;;;;;;28.51;73.26;99070.00;5071763;28;20200;-68
2022/08/24 17:43:16;;;;;;;9.27;4.00;;;;;;;28.38;73.37;99047.78;5072064;28;20656;-68
2022/08/24 17:45:43;;;;;;;11.33;4.27;;;;;;;28.47;73.08;99063.41;5072055;28;20659;-68
2022/08/24 17:48:14;;;;;;;11.93;3.87;;;;;;;28.50;73.14;99072.81;5071678;28;20208;-66
2022/08/24 17:50:43;;;;;;;6.07;3.73;;;;;;;28.50;73.75;99078.91;5071383;28;20211;-66
2022/08/24 17:53:11;;;;;;;12.33;4.43;;;;;;;28.43;72.66;99077.13;5071843;28;20228;-66
2022/08/24 17:55:38;;;;;;;18.60;9.30;;;;;;;28.41;72.97;99084.38;5070525;28;20220;-66
2022/08/24 17:58:05;;;;;;;92.57;53.57;;;;;;;28.42;73.50;99078.09;5071474;28;20200;-66
2022/08/24 18:00:32;;;;;;;80.97;47.10;;;;;;;28.43;74.01;99087.66;5069940;28;20215;-67
2022/08/24 18:02:59;;;;;;;65.83;41.07;;;;;;;28.39;74.23;99075.81;5065160;28;20655;-67
2022/08/24 18:05:27;;;;;;;67.70;37.63;;;;;;;28.44;74.21;99078.75;5069305;28;20202;-67
2022/08/24 18:07:56;;;;;;;78.27;40.10;;;;;;;28.44;74.53;99073.47;5071988;28;20204;-67